Time;durP1;ratioP1;P1;durP2;ratioP2;P2;SDS_P1;SDS_P2;PMS_P1;PMS_P2;Temp;Humidity;BMP_temperature;BMP_pressure;BME280_temperature;BME280_humidity;BME280_pressure;Samples;Min_cycle;Max_cycle;Signal;HPM_P1;HPM_P2
2022/05/22 04:25:11;;;;;;;7.22;4.57;;;;;;;9.58;100.00;100316.72;5109108;27;20170;-76
2022/05/22 04:25:22;;;;;;;8.13;5.25;;;;;;;9.65;100.00;100319.56;5107885;28;20548;-76
2022/05/22 04:27:49;;;;;;;10.40;4.40;;;;;;;9.74;100.00;100324.72;5108248;28;20127;-76
2022/05/22 04:30:18;;;;;;;5.95;4.40;;;;;;;9.83;100.00;100316.75;5108390;28;20119;-76
2022/05/22 04:32:51;;;;;;;5.72;3.85;;;;;;;9.87;100.00;100308.28;5091830;28;20047;-76
2022/05/22 04:35:18;;;;;;;5.65;4.20;;;;;;;9.96;100.00;100315.25;5107953;28;20052;-76
2022/05/22 04:37:44;;;;;;;5.50;3.90;;;;;;;10.00;100.00;100313.09;5109245;28;20459;-76
2022/05/22 04:40:11;;;;;;;5.22;3.72;;;;;;;10.06;100.00;100307.09;5109192;28;20107;-76
2022/05/22 04:42:39;;;;;;;6.10;3.70;;;;;;;10.09;100.00;100306.75;5107701;28;20031;-76
2022/05/22 04:45:09;;;;;;;6.30;3.83;;;;;;;10.12;100.00;100308.25;5107913;28;20089;-76
2022/05/22 04:47:42;;;;;;;5.22;3.90;;;;;;;10.15;100.00;100310.56;5091828;28;20062;-76
2022/05/22 04:50:26;;;;;;;8.73;3.92;;;;;;;10.16;100.00;100314.88;5107937;28;20042;-76
2022/05/22 04:53:10;;;;;;;8.30;4.30;;;;;;;10.16;100.00;100301.56;5107927;28;20127;-76
2022/05/22 04:56:05;;;;;;;10.75;6.57;;;;;;;10.25;100.00;100303.28;5107454;28;20063;-76
2022/05/22 04:58:39;;;;;;;13.43;7.97;;;;;;;10.33;100.00;100300.59;5107611;28;20036;-76
2022/05/22 05:01:14;;;;;;;12.00;6.30;;;;;;;10.39;100.00;100299.91;5107269;28;20040;-76
2022/05/22 05:03:58;;;;;;;7.30;4.35;;;;;;;10.47;100.00;100293.72;5108797;28;20131;-76
2022/05/22 05:06:29;;;;;;;5.90;4.20;;;;;;;10.57;100.00;100305.84;5107215;28;20070;-76
2022/05/22 05:08:54;;;;;;;9.18;6.10;;;;;;;10.70;100.00;100309.81;5107382;28;20071;-76
2022/05/22 05:11:24;;;;;;;10.05;6.78;;;;;;;10.79;100.00;100298.94;5107227;28;20020;-76
2022/05/22 05:14:01;;;;;;;9.65;5.88;;;;;;;10.99;100.00;100301.16;5107053;28;20032;-76
2022/05/22 05:16:28;;;;;;;11.00;5.00;;;;;;;11.20;100.00;100300.53;5107004;28;20507;-76
2022/05/22 05:19:14;;;;;;;17.80;9.05;;;;;;;11.46;98.87;100305.53;5108144;27;20100;-76
2022/05/22 05:21:42;;;;;;;;;;;;;;;11.56;98.52;100296.31;5090389;28;20467;-76
2022/05/22 05:24:09;;;;;;;;;;;;;;;11.61;96.51;100296.59;5107477;28;20365;-77
2022/05/22 05:26:37;;;;;;;4.45;3.28;;;;;;;11.64;95.54;100298.91;5106922;28;19941;-76
2022/05/22 05:29:11;;;;;;;8.80;5.68;;;;;;;11.70;95.30;100286.69;5091287;28;20043;-76
2022/05/22 05:31:39;;;;;;;7.78;5.28;;;;;;;11.76;95.70;100296.66;5106667;28;20035;-78
2022/05/22 05:34:04;;;;;;;9.13;5.32;;;;;;;11.90;96.16;100298.56;5075416;28;20039;-78
2022/05/22 05:36:41;;;;;;;6.95;3.47;;;;;;;12.01;93.98;100288.47;5093010;28;20063;-77
2022/05/22 05:39:22;;;;;;;5.10;3.58;;;;;;;12.11;92.68;100289.84;5078455;28;20055;-78
2022/05/22 05:42:06;;;;;;;10.38;3.65;;;;;;;12.20;92.51;100294.09;5092995;28;20120;-77
2022/05/22 05:44:35;;;;;;;7.10;3.97;;;;;;;12.31;92.84;100291.97;5076464;28;20052;-77
2022/05/22 05:47:17;;;;;;;6.95;3.58;;;;;;;12.42;92.76;100280.84;5092912;28;20040;-77
2022/05/22 05:49:57;;;;;;;7.07;3.85;;;;;;;12.49;93.24;100287.09;5092983;28;20028;-77
2022/05/22 05:52:28;;;;;;;6.22;4.00;;;;;;;12.60;93.03;100289.31;5092479;28;20036;-77
2022/05/22 05:54:57;;;;;;;8.93;3.60;;;;;;;12.67;90.73;100287.56;5092847;28;20405;-77
2022/05/22 05:57:44;;;;;;;5.65;3.95;;;;;;;12.79;90.78;100287.09;5094017;28;20040;-76
2022/05/22 06:00:15;;;;;;;8.23;4.05;;;;;;;12.92;90.49;100282.75;5092794;28;20032;-76
2022/05/22 06:02:48;;;;;;;;;;;;;;;13.02;90.34;100279.75;5107278;28;20400;-80
2022/05/22 06:05:14;;;;;;;6.32;4.40;;;;;;;13.13;88.11;100289.97;5108599;28;19912;-79
2022/05/22 06:07:40;;;;;;;7.47;4.07;;;;;;;13.26;87.97;100294.66;5104281;28;20042;-78
2022/05/22 06:10:14;;;;;;;8.10;4.20;;;;;;;13.36;87.01;100295.16;5092484;28;20060;-79
2022/05/22 06:13:03;;;;;;;8.63;4.78;;;;;;;13.47;87.38;100300.03;5090314;28;20504;-77
2022/05/22 06:15:28;;;;;;;9.48;4.60;;;;;;;13.58;87.53;100294.19;5092232;28;20098;-77
2022/05/22 06:17:56;;;;;;;10.70;4.35;;;;;;;13.70;86.34;100299.84;5092225;28;20043;-76
2022/05/22 06:20:24;;;;;;;7.22;4.32;;;;;;;13.88;87.53;100298.53;5091996;28;20054;-76
2022/05/22 06:22:49;;;;;;;5.90;3.75;;;;;;;13.96;87.02;100295.75;5092138;28;20102;-77
2022/05/22 06:25:47;;;;;;;7.10;4.93;;;;;;;14.07;85.14;100295.19;5080823;28;20411;-77
2022/05/22 06:28:22;;;;;;;9.50;3.95;;;;;;;14.18;84.59;100297.34;5093394;28;20040;-77
2022/05/22 06:31:07;;;;;;;8.77;4.80;;;;;;;14.28;84.43;100296.97;5093558;28;20086;-78
2022/05/22 06:33:55;;;;;;;9.93;4.63;;;;;;;14.37;83.38;100304.69;5093323;28;20151;-77
2022/05/22 06:36:39;;;;;;;12.63;6.13;;;;;;;14.50;84.33;100306.66;5094374;28;20126;-78
2022/05/22 06:42:32;;;;;;;9.32;6.20;;;;;;;14.83;83.29;100303.31;5091212;28;20412;-77
2022/05/22 06:45:15;;;;;;;6.18;4.10;;;;;;;15.02;82.20;100312.47;5093650;28;20496;-78
2022/05/22 06:47:59;;;;;;;6.93;4.13;;;;;;;15.11;78.81;100304.03;5092636;28;20042;-78
2022/05/22 06:50:53;;;;;;;7.90;4.40;;;;;;;15.30;78.96;100302.44;5094041;28;20036;-79
2022/05/22 06:53:27;;;;;;;6.90;4.10;;;;;;;15.51;78.50;100309.50;5091771;28;20125;-77
2022/05/22 06:56:18;;;;;;;7.75;4.82;;;;;;;15.62;77.87;100300.88;5084984;28;20097;-79
2022/05/22 06:59:03;;;;;;;6.88;4.70;;;;;;;15.70;75.17;100300.69;5094863;28;20164;-79
2022/05/22 07:01:29;;;;;;;8.98;4.78;;;;;;;15.80;76.28;100308.34;5094286;28;20052;-78
2022/05/22 07:04:21;;;;;;;10.27;4.20;;;;;;;15.91;76.59;100307.75;5090402;28;20067;-77
2022/05/22 07:06:56;;;;;;;7.25;4.22;;;;;;;15.95;74.82;100302.78;5092638;28;20177;-77
2022/05/22 07:09:39;;;;;;;13.80;7.45;;;;;;;16.02;74.20;100287.47;5078301;28;20208;-77
2022/05/22 07:12:34;;;;;;;7.07;4.40;;;;;;;16.07;73.04;100289.53;5062084;28;20033;-77
2022/05/22 07:15:13;;;;;;;6.47;3.92;;;;;;;16.27;72.87;100282.28;5071153;28;20044;-78
2022/05/22 07:17:41;;;;;;;13.00;8.27;;;;;;;16.39;73.32;100280.59;5070745;28;20408;-77
2022/05/22 07:20:25;;;;;;;8.15;4.30;;;;;;;16.55;71.92;100279.31;5072075;28;20059;-77
2022/05/22 07:22:50;;;;;;;12.70;6.50;;;;;;;16.63;73.13;100278.28;5072129;28;20052;-79
2022/05/22 07:25:31;;;;;;;9.32;6.00;;;;;;;16.65;71.87;100271.63;5071904;28;20056;-79
2022/05/22 07:28:24;;;;;;;6.80;4.38;;;;;;;16.73;71.88;100270.59;5071950;28;20032;-78
2022/05/22 07:31:17;;;;;;;8.00;4.25;;;;;;;16.87;70.88;100258.75;5072293;28;20123;-76
2022/05/22 07:34:15;;;;;;;5.40;3.70;;;;;;;16.95;69.48;100263.06;5048637;28;20397;-79
2022/05/22 07:37:00;;;;;;;;;;;;;;;17.08;69.82;100266.53;5072804;28;20050;-80
2022/05/22 07:39:54;;;;;;;6.65;4.50;;;;;;;17.20;69.89;100268.50;5070880;28;19912;-77
2022/05/22 07:42:20;;;;;;;6.88;3.70;;;;;;;17.21;68.63;100270.97;5071424;28;20041;-78
2022/05/22 07:45:07;;;;;;;12.75;4.53;;;;;;;17.36;68.79;100263.47;5050689;28;20045;-78
2022/05/22 07:47:52;;;;;;;8.88;3.72;;;;;;;17.46;67.58;100254.88;5073339;28;20063;-77
2022/05/22 07:50:37;;;;;;;4.38;3.85;;;;;;;17.58;65.67;100258.53;5073325;28;20374;-77
2022/05/22 07:53:13;;;;;;;6.38;3.60;;;;;;;17.67;65.16;100253.72;5070633;28;20148;-77
2022/05/22 07:55:41;;;;;;;14.77;3.72;;;;;;;17.81;66.33;100243.69;5073310;28;20525;-78
2022/05/22 07:58:26;;;;;;;7.30;3.30;;;;;;;18.01;64.63;100247.03;5072494;28;20087;-77
2022/05/22 08:01:03;;;;;;;5.07;3.05;;;;;;;18.21;64.11;100243.31;5071542;28;20039;-77
2022/05/22 08:03:55;;;;;;;6.00;3.08;;;;;;;18.29;62.75;100243.00;5055494;28;20497;-77
2022/05/22 08:06:39;;;;;;;6.72;2.97;;;;;;;18.39;61.24;100235.22;5073400;28;20059;-78
2022/05/22 08:09:17;;;;;;;8.48;2.83;;;;;;;18.43;61.85;100231.03;5071420;28;20045;-77
2022/05/22 08:11:47;;;;;;;4.90;3.00;;;;;;;18.51;62.29;100229.88;5070560;28;20024;-78
2022/05/22 08:14:15;;;;;;;5.10;3.03;;;;;;;18.70;61.17;100232.38;5071617;28;20036;-78
2022/05/22 08:16:43;;;;;;;5.80;3.05;;;;;;;18.81;60.60;100230.78;5076473;28;20032;-78
2022/05/22 08:19:15;;;;;;;6.32;3.17;;;;;;;18.88;59.35;100228.84;5077505;28;20047;-78
2022/05/22 08:21:59;;;;;;;5.90;3.10;;;;;;;19.04;58.89;100221.13;5070823;28;20409;-77
2022/05/22 08:24:34;;;;;;;3.70;2.55;;;;;;;19.18;59.66;100226.16;5070681;28;20032;-76
2022/05/22 08:27:00;;;;;;;4.00;2.47;;;;;;;19.34;59.69;100221.13;5054175;28;20055;-78
2022/05/22 08:29:32;;;;;;;6.35;2.97;;;;;;;19.49;58.07;100211.53;5071799;28;20068;-78
2022/05/22 08:31:58;;;;;;;5.97;3.13;;;;;;;19.57;57.73;100206.84;5070777;28;20084;-81
2022/05/22 08:34:23;;;;;;;3.22;2.35;;;;;;;19.79;57.38;100202.53;5071814;28;20033;-81
2022/05/22 08:36:51;;;;;;;4.47;2.53;;;;;;;19.98;56.87;100203.25;5072970;28;20039;-81
2022/05/22 08:39:18;;;;;;;5.22;2.80;;;;;;;20.16;57.57;100203.13;5074320;28;20064;-80
2022/05/22 08:41:50;;;;;;;5.07;2.53;;;;;;;20.25;55.52;100198.97;5071073;28;20036;-80
2022/05/22 08:44:20;;;;;;;7.75;2.53;;;;;;;20.44;54.07;100196.13;5070783;28;20045;-80
2022/05/22 08:46:58;;;;;;;5.13;2.45;;;;;;;20.52;53.24;100196.59;5072434;28;20079;-78
2022/05/22 08:49:30;;;;;;;4.78;2.42;;;;;;;20.62;51.46;100189.78;5073652;28;20102;-79
2022/05/22 08:52:13;;;;;;;4.65;2.25;;;;;;;20.74;52.10;100187.84;5073873;28;20078;-79
2022/05/22 08:54:43;;;;;;;5.90;2.60;;;;;;;21.00;51.89;100187.25;5072404;28;20068;-80
2022/05/22 09:00:09;;;;;;;3.75;1.83;;;;;;;21.29;48.50;100181.81;5073464;28;20119;-79
2022/05/22 09:02:34;;;;;;;;;;;;;;;21.45;47.49;100182.88;5074795;28;20132;-80
2022/05/22 09:05:12;;;;;;;3.63;1.73;;;;;;;21.55;47.33;100166.78;5076447;28;20056;-78
2022/05/22 09:07:59;;;;;;;3.70;2.20;;;;;;;21.46;48.90;100179.13;5074308;28;20037;-80
2022/05/22 09:10:37;;;;;;;;;;;;;;;21.78;47.14;100168.47;5079217;28;20045;-78
2022/05/22 09:13:15;;;;;;;5.50;2.20;;;;;;;21.88;44.83;100158.63;5078347;28;19912;-81
2022/05/22 09:15:48;;;;;;;5.65;2.17;;;;;;;21.82;46.07;100162.31;5077936;28;20055;-79
2022/05/22 09:18:29;;;;;;;2.67;2.03;;;;;;;21.78;46.14;100153.06;5077758;28;20063;-79
2022/05/22 09:21:10;;;;;;;5.57;2.60;;;;;;;21.97;45.63;100147.34;5078202;28;20504;-79
2022/05/22 09:23:50;;;;;;;4.18;1.80;;;;;;;22.31;46.56;100143.50;5077784;28;20052;-78
2022/05/22 09:26:37;;;;;;;4.30;2.00;;;;;;;22.43;44.35;100152.31;5077124;28;20032;-80
2022/05/22 09:29:27;;;;;;;3.50;2.53;;;;;;;22.41;43.19;100151.75;5077639;28;20496;-80
2022/05/22 09:32:05;;;;;;;6.22;2.00;;;;;;;22.66;43.76;100150.41;5076042;28;20044;-79
2022/05/22 09:34:37;;;;;;;4.97;2.38;;;;;;;22.88;42.53;100142.22;5076545;28;20036;-79
2022/05/22 09:37:21;;;;;;;4.97;2.08;;;;;;;23.16;41.59;100147.41;5075601;28;20044;-78
2022/05/22 09:39:58;;;;;;;6.05;1.63;;;;;;;23.69;45.06;100134.78;5075802;28;20538;-81
2022/05/22 09:42:43;;;;;;;3.40;1.80;;;;;;;23.51;43.25;100135.16;5080591;28;20492;-80
2022/05/22 09:45:32;;;;;;;4.80;1.70;;;;;;;23.87;43.92;100133.53;5079413;28;20485;-80
2022/05/22 09:48:25;;;;;;;2.53;2.10;;;;;;;23.51;40.90;100133.25;5076165;28;20041;-79
2022/05/22 09:51:06;;;;;;;3.67;1.40;;;;;;;23.82;40.48;100126.16;5076690;28;20020;-80
2022/05/22 09:53:55;;;;;;;4.43;1.50;;;;;;;24.02;40.48;100128.16;5075005;28;20036;-78
2022/05/22 09:56:26;;;;;;;3.30;1.40;;;;;;;24.25;38.85;100115.19;5078394;28;20072;-79
2022/05/22 09:59:09;;;;;;;8.13;1.60;;;;;;;24.61;39.00;100119.69;5078236;28;20036;-79
2022/05/22 10:01:44;;;;;;;3.55;1.92;;;;;;;24.39;39.23;100116.38;5077569;28;20134;-78
2022/05/22 10:04:30;;;;;;;3.58;1.40;;;;;;;24.97;37.59;100124.34;5077311;28;20036;-78
2022/05/22 10:07:07;;;;;;;4.18;1.73;;;;;;;25.38;37.70;100117.88;5076395;28;20047;-78
2022/05/22 10:09:51;;;;;;;2.08;1.42;;;;;;;25.55;37.11;100109.38;5079336;28;20104;-78
2022/05/22 10:12:44;;;;;;;5.30;1.90;;;;;;;25.86;37.54;100103.88;5076189;28;20052;-78
2022/05/22 10:15:28;;;;;;;2.47;1.40;;;;;;;26.33;36.24;100097.94;5075575;28;20103;-77
2022/05/22 10:18:09;;;;;;;2.90;1.30;;;;;;;26.79;35.40;100090.31;5075537;28;20033;-78
2022/05/22 10:20:58;;;;;;;3.85;1.65;;;;;;;27.27;35.22;100090.50;5076957;28;20029;-79
2022/05/22 10:23:33;;;;;;;3.75;1.35;;;;;;;27.74;34.13;100082.69;5077926;28;20032;-78
2022/05/22 10:26:13;;;;;;;3.58;1.40;;;;;;;27.92;32.12;100072.91;5078962;28;20033;-80
2022/05/22 10:28:48;;;;;;;2.40;1.50;;;;;;;27.61;33.11;100067.75;5060441;28;20043;-78
2022/05/22 10:31:59;;;;;;;2.10;1.30;;;;;;;27.56;32.91;100068.59;5074301;28;20029;-76
2022/05/22 10:34:41;;;;;;;2.08;1.20;;;;;;;27.67;32.89;100068.50;5073635;28;20097;-76
2022/05/22 10:37:31;;;;;;;4.53;1.67;;;;;;;27.82;32.89;100058.22;5074211;28;20124;-77
2022/05/22 10:39:57;;;;;;;4.32;1.58;;;;;;;27.93;32.92;100058.09;5073480;28;20024;-75
2022/05/22 10:42:46;;;;;;;2.03;1.13;;;;;;;28.06;35.19;100057.41;5072736;28;20033;-76
2022/05/22 10:45:32;;;;;;;2.95;1.33;;;;;;;28.60;32.54;100048.69;5074050;28;20293;-77
2022/05/22 10:48:11;;;;;;;2.63;1.55;;;;;;;28.70;31.74;100038.69;5073995;28;20032;-76
2022/05/22 10:50:49;;;;;;;3.00;1.40;;;;;;;28.04;33.62;100035.78;5076735;28;20028;-78
2022/05/22 10:53:33;;;;;;;3.30;1.40;;;;;;;27.90;33.88;100034.84;5080406;28;20104;-77
2022/05/22 10:56:03;;;;;;;4.45;1.30;;;;;;;28.02;33.40;100034.44;5080738;28;20425;-76
2022/05/22 10:58:32;;;;;;;3.03;1.17;;;;;;;27.84;32.70;100028.66;5079062;28;20895;-77
2022/05/22 11:01:05;;;;;;;3.33;1.35;;;;;;;27.46;31.63;100027.72;5075033;28;20025;-75
2022/05/22 11:03:33;;;;;;;2.60;1.30;;;;;;;26.77;30.70;100018.75;5072529;28;20115;-75
2022/05/22 11:06:01;;;;;;;2.75;1.25;;;;;;;27.95;29.83;100014.84;5075371;28;20153;-76
2022/05/22 11:08:35;;;;;;;3.10;0.90;;;;;;;28.24;30.07;100012.78;5088750;28;20085;-76
2022/05/22 11:11:10;;;;;;;1.90;1.27;;;;;;;28.22;28.87;100017.72;5092479;28;20107;-76
2022/05/22 11:13:38;;;;;;;5.45;1.30;;;;;;;28.40;31.35;100005.19;5091144;28;20028;-77
2022/05/22 11:16:17;;;;;;;2.78;1.20;;;;;;;27.33;27.56;100011.19;5098313;28;20046;-75
2022/05/22 11:18:43;;;;;;;1.33;1.00;;;;;;;28.05;29.22;100007.31;5097803;28;20098;-77
2022/05/22 11:21:41;;;;;;;4.47;1.30;;;;;;;28.69;28.40;100018.72;5092924;28;20020;-76
2022/05/22 11:24:27;;;;;;;2.00;1.27;;;;;;;28.87;27.23;100008.81;5092111;28;20035;-75
2022/05/22 11:27:16;;;;;;;2.42;1.30;;;;;;;29.38;28.20;100005.97;5088565;28;20031;-75
2022/05/22 11:30:19;;;;;;;4.43;1.27;;;;;;;29.03;27.06;99995.69;5091109;28;20036;-76
2022/05/22 11:32:45;;;;;;;3.33;1.30;;;;;;;29.79;26.96;99985.97;5091120;28;20114;-75
2022/05/22 11:35:31;;;;;;;2.47;1.25;;;;;;;30.09;27.29;99989.97;5092221;28;20066;-76
2022/05/22 11:38:16;;;;;;;3.63;1.38;;;;;;;29.11;26.24;99989.50;5092527;28;20039;-76
2022/05/22 11:41:03;;;;;;;3.10;1.13;;;;;;;29.03;25.68;99993.75;5092269;28;20079;-75
2022/05/22 11:43:38;;;;;;;1.83;1.00;;;;;;;30.02;24.05;99981.34;5092196;28;20119;-76
2022/05/22 11:46:17;;;;;;;2.67;1.15;;;;;;;30.35;24.89;99992.16;5091274;28;20036;-77
2022/05/22 11:49:00;;;;;;;3.38;1.17;;;;;;;30.47;22.93;100000.69;5090148;28;20028;-77
2022/05/22 11:51:41;;;;;;;1.73;0.98;;;;;;;30.83;23.31;100000.63;5090116;28;20027;-76
2022/05/22 11:54:25;;;;;;;2.28;1.08;;;;;;;30.76;23.24;99994.75;5089524;28;20442;-77
2022/05/22 11:57:29;;;;;;;1.88;1.10;;;;;;;31.53;22.83;99975.09;5087892;28;20042;-75
2022/05/22 12:00:11;;;;;;;1.80;1.00;;;;;;;31.20;22.77;99968.31;5048981;28;20405;-75
2022/05/22 12:03:06;;;;;;;2.22;1.17;;;;;;;31.50;24.16;99967.47;5049170;28;20036;-76
2022/05/22 12:05:50;;;;;;;2.05;1.50;;;;;;;31.42;23.37;99965.50;5061017;28;20172;-76
2022/05/22 12:08:31;;;;;;;1.95;1.20;;;;;;;31.14;23.69;99967.63;5071816;28;20048;-77
2022/05/22 12:11:21;;;;;;;5.82;4.03;;;;;;;31.75;23.55;99949.38;5071816;28;20036;-77
2022/05/22 12:14:25;;;;;;;2.00;1.08;;;;;;;31.50;22.98;99941.91;5071291;28;20106;-76
2022/05/22 12:17:30;;;;;;;5.13;3.20;;;;;;;31.63;24.67;99940.97;5071561;28;20099;-76
2022/05/22 12:20:10;;;;;;;2.08;1.20;;;;;;;30.43;26.28;99929.03;5071670;28;20397;-76
2022/05/22 12:23:13;;;;;;;5.82;3.22;;;;;;;31.07;26.14;99931.53;5071992;28;20058;-77
2022/05/22 12:25:59;;;;;;;4.15;2.88;;;;;;;31.06;25.46;99921.66;5069435;28;20041;-76
2022/05/22 12:28:47;;;;;;;5.13;3.58;;;;;;;31.03;25.05;99922.28;5071788;28;20115;-76
2022/05/22 12:31:25;;;;;;;5.20;3.40;;;;;;;31.38;24.90;99917.75;5053595;28;20444;-77
2022/05/22 12:33:52;;;;;;;3.03;2.22;;;;;;;30.54;26.91;99916.66;5070019;28;20032;-77
2022/05/22 12:36:21;;;;;;;;;;;;;;;29.89;29.72;99910.81;5071807;28;20085;-76
2022/05/22 12:38:55;;;;;;;3.45;2.17;;;;;;;30.68;29.02;99900.13;5071352;28;19916;-76
2022/05/22 12:41:58;;;;;;;3.35;1.60;;;;;;;30.95;28.52;99898.31;5070296;28;20081;-77
2022/05/22 12:44:28;;;;;;;1.63;1.23;;;;;;;30.73;28.09;99888.19;5075208;28;20063;-77
2022/05/22 12:46:55;;;;;;;3.90;1.67;;;;;;;30.86;28.19;99894.72;5075381;28;20041;-76
2022/05/22 12:49:26;;;;;;;1.83;1.25;;;;;;;30.63;28.23;99891.16;5075338;28;20048;-77
2022/05/22 12:52:02;;;;;;;4.00;1.50;;;;;;;29.24;29.33;99879.00;5074814;28;20090;-74
2022/05/22 12:54:34;;;;;;;2.55;1.42;;;;;;;29.97;30.04;99880.69;5073936;28;20036;-75
2022/05/22 12:57:19;;;;;;;1.80;1.20;;;;;;;29.77;29.45;99878.44;5074181;28;20040;-75
2022/05/22 12:59:56;;;;;;;1.70;1.10;;;;;;;28.97;30.98;99873.53;5075611;28;20374;-75
2022/05/22 13:02:32;;;;;;;4.18;1.50;;;;;;;29.78;29.47;99873.75;5075014;28;20036;-76
2022/05/22 13:05:00;;;;;;;3.05;1.30;;;;;;;30.17;29.57;99862.13;5075802;28;20412;-77
2022/05/22 13:07:34;;;;;;;2.22;1.40;;;;;;;29.30;30.19;99855.84;5075256;28;20413;-78
2022/05/22 13:10:17;;;;;;;4.05;1.40;;;;;;;29.06;30.67;99861.53;5075317;28;20393;-77
2022/05/22 13:12:43;;;;;;;2.30;1.20;;;;;;;29.27;30.36;99861.13;5074513;28;20039;-77
2022/05/22 13:15:15;;;;;;;2.55;1.42;;;;;;;28.12;31.50;99859.09;5074998;28;20569;-77
2022/05/22 13:17:50;;;;;;;2.33;1.48;;;;;;;28.10;32.11;99859.41;5074754;28;20294;-76
2022/05/22 13:20:22;;;;;;;3.55;1.65;;;;;;;28.50;31.91;99856.31;5074644;28;20028;-75
2022/05/22 13:22:48;;;;;;;2.85;1.27;;;;;;;27.92;31.07;99853.97;5086886;28;20161;-77
2022/05/22 13:25:45;;;;;;;3.28;1.50;;;;;;;27.67;31.35;99853.19;5094794;28;20081;-76
2022/05/22 13:28:20;;;;;;;2.03;1.45;;;;;;;27.95;31.18;99861.56;5085777;28;20512;-78
2022/05/22 13:30:51;;;;;;;5.25;1.52;;;;;;;27.84;31.77;99856.25;5082907;28;20024;-78
2022/05/22 13:33:17;;;;;;;1.80;1.23;;;;;;;27.80;31.70;99857.97;5085717;28;20070;-77
2022/05/22 13:35:56;;;;;;;4.53;1.58;;;;;;;27.82;30.83;99866.66;5086620;28;20467;-76
2022/05/22 13:38:22;;;;;;;3.78;1.50;;;;;;;27.22;32.26;99851.91;5083285;28;20040;-77
2022/05/22 13:41:11;;;;;;;2.03;1.30;;;;;;;27.69;31.36;99855.66;5085803;28;20025;-76
2022/05/22 13:43:45;;;;;;;3.33;1.60;;;;;;;27.10;34.01;99849.59;5079148;28;20320;-75
2022/05/22 13:46:48;;;;;;;3.25;1.27;;;;;;;27.18;32.14;99856.31;5082142;28;20020;-77
2022/05/22 13:49:50;;;;;;;1.48;1.02;;;;;;;27.58;30.64;99858.53;5083560;28;20491;-75
2022/05/22 13:52:37;;;;;;;1.63;1.13;;;;;;;26.58;31.53;99858.59;5083400;28;20032;-76
2022/05/22 13:55:09;;;;;;;1.75;1.10;;;;;;;26.35;31.45;99854.72;5083981;28;20056;-76
2022/05/22 13:57:38;;;;;;;2.65;1.30;;;;;;;26.84;32.92;99861.88;5083175;28;20051;-76
2022/05/22 14:00:16;;;;;;;1.52;1.05;;;;;;;26.88;32.07;99865.69;5067650;28;20557;-76
2022/05/22 14:03:00;;;;;;;3.55;1.10;;;;;;;26.81;31.79;99867.94;5084368;28;20035;-76
2022/05/22 14:05:36;;;;;;;2.25;1.33;;;;;;;26.66;32.46;99856.03;5084239;28;20031;-76
2022/05/22 14:08:09;;;;;;;3.65;1.45;;;;;;;26.89;31.72;99848.16;5092988;28;20040;-76
2022/05/22 14:10:39;;;;;;;1.30;1.10;;;;;;;26.92;31.30;99847.56;5093663;28;20034;-77
2022/05/22 14:13:18;;;;;;;3.08;1.20;;;;;;;26.56;31.54;99850.72;5093709;28;20042;-76
2022/05/22 14:15:56;;;;;;;1.98;1.20;;;;;;;26.00;31.84;99867.53;5094565;28;20405;-75
2022/05/22 14:18:26;;;;;;;4.22;2.03;;;;;;;26.34;31.82;99858.50;5092972;28;20075;-76
2022/05/22 14:20:54;;;;;;;4.03;2.38;;;;;;;26.34;31.70;99859.31;5092560;28;20035;-76
2022/05/22 14:23:32;;;;;;;2.45;1.40;;;;;;;26.04;31.50;99873.25;5093913;28;20145;-76
2022/05/22 14:26:01;;;;;;;4.45;2.67;;;;;;;26.29;31.86;99850.41;5094120;28;20186;-77
2022/05/22 14:28:38;;;;;;;5.18;1.95;;;;;;;26.12;31.82;99856.25;5093591;28;20036;-76
2022/05/22 14:31:15;;;;;;;3.88;2.67;;;;;;;26.24;30.80;99854.78;5077010;28;20047;-76
2022/05/22 14:33:40;;;;;;;6.85;4.28;;;;;;;26.09;31.85;99865.84;5093509;28;20028;-77
2022/05/22 14:36:08;;;;;;;2.47;1.70;;;;;;;25.89;31.81;99871.44;5093438;28;20039;-75
2022/05/22 14:38:39;;;;;;;3.35;2.30;;;;;;;26.03;32.07;99864.25;5093442;28;20392;-76
2022/05/22 14:41:05;;;;;;;2.17;1.45;;;;;;;25.81;31.28;99866.56;5093577;28;20040;-75
2022/05/22 14:43:40;;;;;;;3.50;2.50;;;;;;;26.00;30.99;99870.25;5093059;28;20028;-77
2022/05/22 14:46:09;;;;;;;2.00;1.35;;;;;;;25.93;30.91;99853.41;5092080;28;20520;-75
2022/05/22 14:48:41;;;;;;;3.33;1.80;;;;;;;25.82;31.35;99865.47;5093164;28;20081;-75
2022/05/22 14:51:30;;;;;;;3.40;1.27;;;;;;;25.52;30.24;99864.53;5093083;28;20080;-76
2022/05/22 14:54:42;;;;;;;3.58;1.30;;;;;;;25.10;31.47;99865.84;5092915;28;20428;-77
2022/05/22 14:57:37;;;;;;;2.60;1.60;;;;;;;25.44;31.56;99863.22;5070435;28;20068;-76
2022/05/22 15:00:17;;;;;;;1.80;1.23;;;;;;;25.39;31.76;99859.72;5069894;28;20094;-76
2022/05/22 15:02:51;;;;;;;3.83;1.45;;;;;;;25.25;32.56;99853.25;5088451;28;20070;-75
2022/05/22 15:05:28;;;;;;;3.13;1.70;;;;;;;25.41;31.98;99843.88;5090748;28;20044;-75
2022/05/22 15:08:02;;;;;;;3.55;1.30;;;;;;;25.43;32.15;99839.78;5092866;28;20084;-75
2022/05/22 15:10:28;;;;;;;2.67;1.30;;;;;;;25.16;32.32;99840.16;5091992;28;20040;-75
2022/05/22 15:12:54;;;;;;;4.32;2.35;;;;;;;25.02;32.26;99824.69;5093851;28;20123;-76
2022/05/22 15:15:30;;;;;;;2.07;1.30;;;;;;;25.00;32.73;99824.97;5093442;28;20550;-77
2022/05/22 15:18:17;;;;;;;3.53;2.43;;;;;;;24.88;33.38;99830.72;5094059;28;20500;-76
2022/05/22 15:20:45;;;;;;;8.82;1.52;;;;;;;24.53;32.85;99826.19;5094582;28;20127;-77
2022/05/22 15:26:25;;;;;;;3.67;2.70;;;;;;;24.66;33.97;99815.81;5092991;28;20040;-75
2022/05/22 15:28:51;;;;;;;2.95;1.33;;;;;;;24.74;34.25;99812.53;5093026;28;20040;-75
2022/05/22 15:31:32;;;;;;;4.57;1.40;;;;;;;24.80;33.48;99800.53;5092537;28;20397;-74
2022/05/22 15:34:28;;;;;;;5.45;1.98;;;;;;;24.71;33.49;99799.44;5093113;28;20115;-76
2022/05/22 15:36:54;;;;;;;1.70;1.13;;;;;;;24.53;34.48;99801.69;5092853;28;20043;-77
2022/05/22 15:39:32;;;;;;;2.13;1.50;;;;;;;24.57;35.09;99794.59;5092788;28;20446;-77
2022/05/22 15:42:18;;;;;;;2.40;1.40;;;;;;;24.46;36.52;99809.34;5091734;28;20043;-76
2022/05/22 15:44:52;;;;;;;1.60;1.20;;;;;;;24.49;39.82;99814.22;5092536;28;20078;-76
2022/05/22 15:47:29;;;;;;;1.85;1.27;;;;;;;24.47;37.24;99805.50;5092147;28;20374;-76
2022/05/22 15:52:55;;;;;;;4.00;1.90;;;;;;;24.34;38.49;99795.19;5092101;28;20285;-77
2022/05/22 15:55:24;;;;;;;3.85;1.58;;;;;;;24.20;39.54;99794.91;5090839;28;20060;-77
2022/05/22 15:57:51;;;;;;;2.45;1.27;;;;;;;24.19;37.36;99778.84;5092436;28;20043;-76
2022/05/22 16:00:17;;;;;;;2.08;1.45;;;;;;;24.16;36.14;99771.25;5092159;28;20035;-76
2022/05/22 16:02:47;;;;;;;2.90;1.80;;;;;;;24.20;37.13;99783.22;5092323;28;20157;-76
2022/05/22 16:05:17;;;;;;;2.38;1.50;;;;;;;24.05;36.58;99790.28;5091986;28;20123;-76
2022/05/22 16:07:51;;;;;;;1.30;1.02;;;;;;;23.91;37.59;99802.81;5091914;28;20036;-77
2022/05/22 16:10:19;;;;;;;5.13;3.70;;;;;;;24.02;36.91;99782.69;5092038;28;20032;-76
2022/05/22 16:12:45;;;;;;;2.45;1.90;;;;;;;24.02;37.71;99771.00;5091771;28;20124;-76
2022/05/22 16:15:12;;;;;;;3.03;1.20;;;;;;;23.88;36.46;99784.31;5092037;28;20027;-76
2022/05/22 16:17:47;;;;;;;4.18;2.67;;;;;;;23.93;39.25;99754.41;5091944;28;20093;-77
2022/05/22 16:20:13;;;;;;;4.78;3.53;;;;;;;23.81;43.63;99704.94;5094932;28;20051;-77
2022/05/22 16:22:40;;;;;;;3.00;1.75;;;;;;;23.66;40.82;99637.75;5095293;28;20020;-78
2022/05/22 16:25:09;;;;;;;2.40;1.80;;;;;;;23.52;38.12;99617.63;5094756;28;20032;-76
2022/05/22 16:27:35;;;;;;;3.00;1.52;;;;;;;23.45;38.04;99614.38;5093615;28;20044;-77
2022/05/22 16:30:00;;;;;;;5.95;4.32;;;;;;;23.29;36.64;99619.03;5093133;28;20047;-76
2022/05/22 16:32:26;;;;;;;10.27;7.38;;;;;;;23.32;37.18;99651.06;5092722;28;20119;-77
2022/05/22 16:34:53;;;;;;;3.50;2.15;;;;;;;23.13;36.50;99656.22;5092394;28;20374;-77
2022/05/22 16:37:18;;;;;;;9.18;5.55;;;;;;;23.25;35.93;99651.34;5092284;28;20042;-76
2022/05/22 16:39:44;;;;;;;6.18;4.15;;;;;;;23.23;35.99;99650.81;5092469;28;20127;-77
2022/05/22 16:42:10;;;;;;;16.45;11.50;;;;;;;23.26;36.42;99655.69;5093627;28;20389;-77
2022/05/22 16:44:36;;;;;;;6.13;3.30;;;;;;;23.37;36.08;99653.00;5091163;28;20473;-76
2022/05/22 16:53:01;;;;;;;3.50;2.30;;;;;;;23.24;35.42;99652.44;5091808;28;20047;-78
2022/05/22 16:55:17;;;;;;;3.05;2.05;;;;;;;23.14;36.02;99678.75;5090233;28;20051;-74